Time;durP1;ratioP1;P1;durP2;ratioP2;P2;SDS_P1;SDS_P2;PMS_P1;PMS_P2;Temp;Humidity;BMP_temperature;BMP_pressure;BME280_temperature;BME280_humidity;BME280_pressure;Samples;Min_cycle;Max_cycle;Signal;HPM_P1;HPM_P2
2021/12/05 00:23:09;;;;;;;1999.90;999.90;;;;;;;-1.88;59.94;99352.59;4940823;28;100392;-75
2021/12/05 00:25:37;;;;;;;1999.90;999.90;;;;;;;-1.87;60.05;99356.97;4940151;28;98164;-75
2021/12/05 00:28:31;;;;;;;1999.90;999.90;;;;;;;-1.91;60.40;99344.59;4946171;28;96845;-76
2021/12/05 00:31:16;;;;;;;1999.90;999.90;;;;;;;-1.92;60.14;99353.25;4947497;28;97523;-75
2021/12/05 00:39:56;;;;;;;1999.90;999.90;;;;;;;-1.91;59.75;99359.38;4945390;28;97485;-75
2021/12/05 00:43:00;;;;;;;1999.90;999.90;;;;;;;-1.90;59.60;99369.88;4949041;28;97074;-77
2021/12/05 00:48:38;;;;;;;1999.90;999.90;;;;;;;-1.87;60.24;99375.22;4948332;28;98443;-75
2021/12/05 00:51:57;;;;;;;1999.90;999.90;;;;;;;-1.84;60.30;99377.09;4948306;28;96791;-75
2021/12/05 01:11:42;;;;;;;1999.90;999.90;;;;;;;-1.78;60.34;99369.56;4927769;28;98085;-76
2021/12/05 01:14:23;;;;;;;1999.90;999.90;;;;;;;-1.78;60.00;99374.78;4945450;28;98000;-75
2021/12/05 01:16:51;;;;;;;1999.90;999.90;;;;;;;-1.77;60.11;99380.84;4929894;28;97015;-75
2021/12/05 01:19:23;;;;;;;1999.90;999.90;;;;;;;-1.76;59.89;99383.53;4928517;28;100055;-76
2021/12/05 01:21:57;;;;;;;1999.90;999.90;;;;;;;-1.76;60.20;99380.94;4928753;28;97746;-75
2021/12/05 01:24:36;;;;;;;1999.90;999.90;;;;;;;-1.74;59.97;99388.84;4947358;28;98054;-75
2021/12/05 01:27:14;;;;;;;1999.90;999.90;;;;;;;-1.74;59.90;99392.31;4944354;28;97810;-75
2021/12/05 01:29:49;;;;;;;1999.90;999.90;;;;;;;-1.73;59.63;99388.91;4928283;28;100777;-75
2021/12/05 01:32:28;;;;;;;1999.90;999.90;;;;;;;-1.73;59.72;99406.25;4944373;28;100777;-75
2021/12/05 01:35:08;;;;;;;1999.90;999.90;;;;;;;-1.72;60.07;99408.94;4946894;28;97565;-75
2021/12/05 01:37:55;;;;;;;1999.90;999.90;;;;;;;-1.71;60.19;99415.06;4929039;28;97510;-75
2021/12/05 01:40:56;;;;;;;1999.90;999.90;;;;;;;-1.71;59.98;99423.78;4945734;28;98046;-75
2021/12/05 01:54:56;;;;;;;1999.90;999.90;;;;;;;-1.71;59.81;99446.34;4928657;28;99608;-74
2021/12/05 02:08:59;;;;;;;1999.90;999.90;;;;;;;-1.75;60.28;99441.78;4929458;28;97120;-75
2021/12/05 02:31:31;;;;;;;1999.90;999.90;;;;;;;-1.64;60.29;99477.09;4962064;28;97075;-74
2021/12/05 02:34:11;;;;;;;1999.90;999.90;;;;;;;-1.63;59.69;99478.91;4918414;28;97187;-74
2021/12/05 02:39:41;;;;;;;1999.90;999.90;;;;;;;-1.60;59.58;99479.03;4960555;28;97619;-75
2021/12/05 02:42:13;;;;;;;1999.90;999.90;;;;;;;-1.57;59.77;99479.19;4928918;28;96845;-75
2021/12/05 02:44:42;;;;;;;1999.90;999.90;;;;;;;-1.56;59.66;99488.81;4945669;28;97597;-76
2021/12/05 02:47:14;;;;;;;1999.90;999.90;;;;;;;-1.56;60.14;99496.63;4929464;28;99694;-74
2021/12/05 02:49:43;;;;;;;1999.90;999.90;;;;;;;-1.55;60.23;99493.19;4948530;28;97945;-75
2021/12/05 02:52:20;;;;;;;1999.90;999.90;;;;;;;-1.52;59.95;99499.44;4948869;28;96886;-76
2021/12/05 02:54:53;;;;;;;1999.90;999.90;;;;;;;-1.51;59.71;99482.09;4931792;28;97019;-76
2021/12/05 02:57:33;;;;;;;1999.90;999.90;;;;;;;-1.50;60.14;99483.88;4931620;28;98687;-75
2021/12/05 03:00:08;;;;;;;1999.90;999.90;;;;;;;-1.51;59.70;99475.16;4930256;28;98149;-74
2021/12/05 03:02:41;;;;;;;1999.90;999.90;;;;;;;-1.52;60.43;99485.53;4929201;28;97818;-74
2021/12/05 03:05:13;;;;;;;1999.90;999.90;;;;;;;-1.53;60.04;99483.72;4947616;28;97831;-74
2021/12/05 03:07:42;;;;;;;1999.90;999.90;;;;;;;-1.52;59.80;99489.00;4946105;28;97632;-74
2021/12/05 03:10:16;;;;;;;1999.90;999.90;;;;;;;-1.52;60.32;99495.97;4945792;28;98392;-74
2021/12/05 03:12:45;;;;;;;1999.90;999.90;;;;;;;-1.51;60.37;99492.53;4948776;28;97330;-74
2021/12/05 03:15:18;;;;;;;1999.90;999.90;;;;;;;-1.50;60.21;99502.13;4946579;28;96802;-74
2021/12/05 03:17:49;;;;;;;1999.90;999.90;;;;;;;-1.48;60.28;99505.69;4931435;28;99279;-74
2021/12/05 03:20:18;;;;;;;1999.90;999.90;;;;;;;-1.45;59.55;99513.69;4945957;28;99213;-75
2021/12/05 03:22:46;;;;;;;1999.90;999.90;;;;;;;-1.45;59.70;99514.56;4947162;28;97452;-74
2021/12/05 03:25:16;;;;;;;1999.90;999.90;;;;;;;-1.43;59.70;99512.94;4914151;28;100506;-74
2021/12/05 03:27:44;;;;;;;1999.90;999.90;;;;;;;-1.43;60.43;99515.53;4928798;28;101667;-74
2021/12/05 03:30:14;;;;;;;1999.90;999.90;;;;;;;-1.40;59.85;99535.66;4951326;28;97652;-74
2021/12/05 03:32:48;;;;;;;1999.90;999.90;;;;;;;-1.41;59.79;99531.25;4929329;28;97979;-74
2021/12/05 03:35:16;;;;;;;1999.90;999.90;;;;;;;-1.40;60.27;99535.66;4947176;28;97684;-74
2021/12/05 03:37:46;;;;;;;1999.90;999.90;;;;;;;-1.39;60.34;99540.06;4930331;28;100457;-74
2021/12/05 03:40:16;;;;;;;1999.90;999.90;;;;;;;-1.37;59.56;99538.41;4929427;28;98423;-74
2021/12/05 03:42:45;;;;;;;1999.90;999.90;;;;;;;-1.37;59.84;99547.16;4946010;28;97010;-76
2021/12/05 03:45:19;;;;;;;1999.90;999.90;;;;;;;-1.36;60.28;99537.63;4946641;28;97211;-74
2021/12/05 03:47:47;;;;;;;1999.90;999.90;;;;;;;-1.36;60.43;99543.69;4945909;28;97970;-74
2021/12/05 03:50:16;;;;;;;1999.90;999.90;;;;;;;-1.34;60.02;99549.03;4938799;28;98491;-74
2021/12/05 03:52:47;;;;;;;1999.90;999.90;;;;;;;-1.33;59.96;99563.84;4950658;28;96887;-74
2021/12/05 03:55:19;;;;;;;1999.90;999.90;;;;;;;-1.32;60.10;99560.44;4936998;28;97358;-75
2021/12/05 03:57:47;;;;;;;1999.90;999.90;;;;;;;-1.30;60.11;99563.97;4936392;28;99269;-75
2021/12/05 04:00:18;;;;;;;1999.90;999.90;;;;;;;-1.31;60.44;99560.50;4943070;28;99362;-74
2021/12/05 04:02:48;;;;;;;1999.90;999.90;;;;;;;-1.29;59.96;99568.41;4951566;28;97581;-75
2021/12/05 04:05:23;;;;;;;1999.90;999.90;;;;;;;-1.27;60.40;99571.97;4931657;28;97986;-75
2021/12/05 04:07:53;;;;;;;1999.90;999.90;;;;;;;-1.26;60.37;99572.03;4930980;28;97181;-74
2021/12/05 04:10:25;;;;;;;1999.90;999.90;;;;;;;-1.25;60.05;99576.44;4946855;28;97644;-75
2021/12/05 04:12:55;;;;;;;1999.90;999.90;;;;;;;-1.23;59.81;99585.22;4919414;28;97632;-75
2021/12/05 04:15:22;;;;;;;1999.90;999.90;;;;;;;-1.22;60.13;99586.13;4961238;28;97039;-74
2021/12/05 04:17:51;;;;;;;1999.90;999.90;;;;;;;-1.21;60.54;99580.06;4929478;28;101038;-75
2021/12/05 04:20:21;;;;;;;1999.90;999.90;;;;;;;-1.20;60.69;99588.00;4944438;28;97652;-75
2021/12/05 04:22:49;;;;;;;1999.90;999.90;;;;;;;-1.18;60.59;99586.38;4921762;28;96968;-75
2021/12/05 04:25:18;;;;;;;1999.90;999.90;;;;;;;-1.17;60.62;99589.84;4946097;28;97869;-74
2021/12/05 04:27:50;;;;;;;1999.90;999.90;;;;;;;-1.15;60.22;99585.59;4934351;28;98020;-75
2021/12/05 04:30:19;;;;;;;1999.90;999.90;;;;;;;-1.13;60.48;99584.88;4934253;28;97946;-75
2021/12/05 04:32:48;;;;;;;1999.90;999.90;;;;;;;-1.13;60.40;99578.75;4933009;28;97529;-75
2021/12/05 04:35:16;;;;;;;1999.90;999.90;;;;;;;-1.12;60.34;99586.63;4947059;28;97445;-75
2021/12/05 04:37:45;;;;;;;1999.90;999.90;;;;;;;-1.11;60.60;99571.88;4919153;28;99608;-74
2021/12/05 04:40:13;;;;;;;1999.90;999.90;;;;;;;-1.10;60.54;99578.88;4929849;28;99243;-74
2021/12/05 04:42:45;;;;;;;1999.90;999.90;;;;;;;-1.09;60.66;99578.06;4947143;28;98011;-74
2021/12/05 04:45:18;;;;;;;1999.90;999.90;;;;;;;-1.06;60.22;99578.22;4945908;28;97655;-75
2021/12/05 04:47:46;;;;;;;1999.90;999.90;;;;;;;-1.07;60.71;99569.47;4929136;28;99751;-75
2021/12/05 04:50:18;;;;;;;1999.90;999.90;;;;;;;-1.04;60.11;99579.19;4929476;28;99407;-74
2021/12/05 04:52:47;;;;;;;1999.90;999.90;;;;;;;-1.02;60.60;99577.53;4919182;28;96886;-75
2021/12/05 04:55:16;;;;;;;1999.90;999.90;;;;;;;-1.01;60.23;99581.94;4929838;28;97829;-75
2021/12/05 04:57:44;;;;;;;1999.90;999.90;;;;;;;-1.00;60.24;99582.03;4945779;28;98849;-75
2021/12/05 05:00:18;;;;;;;1999.90;999.90;;;;;;;-1.00;60.64;99587.25;4932641;28;98084;-75
2021/12/05 05:02:47;;;;;;;1999.90;999.90;;;;;;;-0.99;60.73;99594.25;4942979;28;96947;-75
2021/12/05 05:05:16;;;;;;;1999.90;999.90;;;;;;;-0.97;60.44;99591.69;4944799;28;97921;-75
2021/12/05 05:07:44;;;;;;;1999.90;999.90;;;;;;;-0.95;60.32;99590.06;4944141;28;100853;-75
2021/12/05 05:10:16;;;;;;;1999.90;999.90;;;;;;;-0.97;60.41;99586.47;4944991;28;97597;-75
2021/12/05 05:12:44;;;;;;;1999.90;999.90;;;;;;;-1.01;60.42;99589.75;4945814;28;97082;-74
2021/12/05 05:15:14;;;;;;;1999.90;999.90;;;;;;;-1.01;60.38;99597.59;4944933;28;96824;-74
2021/12/05 05:17:43;;;;;;;1999.90;999.90;;;;;;;-1.00;60.75;99615.06;4943971;28;98537;-75
2021/12/05 05:20:21;;;;;;;1999.90;999.90;;;;;;;-1.01;60.55;99627.22;4944398;28;99843;-74
2021/12/05 05:23:05;;;;;;;1999.90;999.90;;;;;;;-0.99;60.58;99630.78;4929497;28;97156;-75
2021/12/05 05:45:23;;;;;;;1999.90;999.90;;;;;;;-0.86;60.27;99629.66;4934945;28;97003;-75
2021/12/05 05:48:02;;;;;;;1999.90;999.90;;;;;;;-0.85;60.83;99631.47;4944844;28;97543;-75
2021/12/05 05:50:31;;;;;;;1999.90;999.90;;;;;;;-0.84;60.32;99634.16;4943936;28;97436;-74
2021/12/05 05:52:59;;;;;;;1999.90;999.90;;;;;;;-0.82;60.52;99644.66;4946402;28;98690;-75
2021/12/05 05:55:27;;;;;;;1999.90;999.90;;;;;;;-0.82;60.72;99642.03;4945327;28;97250;-75
2021/12/05 05:58:04;;;;;;;1999.90;999.90;;;;;;;-0.83;60.89;99638.53;4944364;28;96892;-72
2021/12/05 06:00:38;;;;;;;1999.90;999.90;;;;;;;-0.82;60.59;99645.56;4944403;28;99330;-75
2021/12/05 06:03:22;;;;;;;1999.90;999.90;;;;;;;-0.80;60.83;99648.25;4944263;28;97791;-75
2021/12/05 06:05:53;;;;;;;1999.90;999.90;;;;;;;-0.78;60.69;99650.91;4946156;28;96764;-75
2021/12/05 06:08:24;;;;;;;1999.90;999.90;;;;;;;-0.78;60.41;99652.69;4946364;28;97436;-75
2021/12/05 06:10:54;;;;;;;1999.90;999.90;;;;;;;-0.79;60.76;99647.41;4944969;28;98434;-75
2021/12/05 06:13:22;;;;;;;1999.90;999.90;;;;;;;-0.78;60.81;99658.75;4945771;28;98214;-75
2021/12/05 06:15:51;;;;;;;1999.90;999.90;;;;;;;-0.79;60.55;99647.41;4944966;28;97460;-74
2021/12/05 06:18:21;;;;;;;1999.90;999.90;;;;;;;-0.77;60.88;99658.81;4946371;28;96926;-74
2021/12/05 06:20:49;;;;;;;1999.90;999.90;;;;;;;-0.76;60.65;99663.25;4960991;28;97595;-75
2021/12/05 06:23:18;;;;;;;1999.90;999.90;;;;;;;-0.75;60.42;99672.84;4945820;28;97665;-75
2021/12/05 06:25:50;;;;;;;1999.90;999.90;;;;;;;-0.74;60.49;99666.81;4947502;28;96823;-75
2021/12/05 06:28:23;;;;;;;1999.90;999.90;;;;;;;-0.71;60.62;99671.28;4949273;28;96998;-75
2021/12/05 06:30:55;;;;;;;1999.90;999.90;;;;;;;-0.70;60.78;99679.19;4947562;28;97909;-75
2021/12/05 06:41:58;;;;;;;1999.90;999.90;;;;;;;-0.67;60.60;99689.78;4949364;28;97500;-75
2021/12/05 06:47:12;;;;;;;1999.90;999.90;;;;;;;-0.69;60.11;99699.28;4950526;28;96757;-75
2021/12/05 06:49:41;;;;;;;1999.90;999.90;;;;;;;-0.70;60.37;99696.59;4948799;28;98364;-74
2021/12/05 06:52:28;;;;;;;1999.90;999.90;;;;;;;-0.73;60.34;99699.94;4948319;28;97856;-74
2021/12/05 06:54:57;;;;;;;1999.90;999.90;;;;;;;-0.73;60.60;99701.66;4963978;28;99773;-74
2021/12/05 06:57:25;;;;;;;1999.90;999.90;;;;;;;-0.75;60.48;99704.19;4948188;28;96861;-75
2021/12/05 06:59:53;;;;;;;1999.90;999.90;;;;;;;-0.74;60.60;99711.22;4949346;28;97521;-74
2021/12/05 07:02:21;;;;;;;1999.90;999.90;;;;;;;-0.74;60.64;99715.53;4945396;28;99927;-74
2021/12/05 07:05:36;;;;;;;1999.90;999.90;;;;;;;-0.76;60.38;99717.19;4946997;28;97604;-75
2021/12/05 07:07:53;;;;;;;1999.90;999.90;;;;;;;-0.78;60.27;99720.59;4947994;28;96994;-73
2021/12/05 07:10:22;;;;;;;1999.90;999.90;;;;;;;-0.78;60.53;99724.94;4945106;28;96816;-73
2021/12/05 07:15:43;;;;;;;1999.90;999.90;;;;;;;-0.82;60.56;99736.06;4946348;28;97956;-73
2021/12/05 07:21:19;;;;;;;1999.90;999.90;;;;;;;-0.84;60.62;99740.31;4948425;28;96975;-74
2021/12/05 07:23:56;;;;;;;1999.90;999.90;;;;;;;-1.08;61.27;99754.72;4946796;28;99563;-74
2021/12/05 07:26:28;;;;;;;1999.90;999.90;;;;;;;-1.12;61.50;99753.69;4950991;28;96889;-75
2021/12/05 07:42:46;;;;;;;1999.90;999.90;;;;;;;-1.21;61.55;99796.66;4948139;28;97037;-74
2021/12/05 07:45:21;;;;;;;1999.90;999.90;;;;;;;-1.22;61.50;99797.50;4949348;28;100384;-75
2021/12/05 07:47:50;;;;;;;1999.90;999.90;;;;;;;-1.26;61.54;99800.75;4953069;28;99132;-71
2021/12/05 07:50:22;;;;;;;1999.90;999.90;;;;;;;-1.27;61.48;99810.28;4949555;28;97229;-73
2021/12/05 07:52:53;;;;;;;1999.90;999.90;;;;;;;-1.28;61.59;99818.06;4947043;28;99278;-75
2021/12/05 07:55:26;;;;;;;1999.90;999.90;;;;;;;-1.30;61.79;99817.06;4953054;28;99244;-74
2021/12/05 07:58:09;;;;;;;1999.90;999.90;;;;;;;-1.33;61.38;99812.59;4943964;28;99254;-76
2021/12/05 08:00:48;;;;;;;1999.90;999.90;;;;;;;-1.34;61.65;99812.53;4945992;28;97094;-74
2021/12/05 08:14:27;;;;;;;1999.90;999.90;;;;;;;-1.45;61.95;99818.91;4942804;28;97481;-74
2021/12/05 08:16:56;;;;;;;1999.90;999.90;;;;;;;-1.45;62.29;99824.97;4944116;28;99597;-74
2021/12/05 08:19:24;;;;;;;1999.90;999.90;;;;;;;-1.44;62.09;99825.88;4939985;28;100328;-74
2021/12/05 08:21:55;;;;;;;1999.90;999.90;;;;;;;-1.41;61.58;99833.88;4947271;28;96863;-73
2021/12/05 08:24:24;;;;;;;1999.90;999.90;;;;;;;-1.41;62.07;99837.38;4939561;28;99092;-73
2021/12/05 08:26:53;;;;;;;1999.90;999.90;;;;;;;-1.39;61.78;99840.97;4943080;28;99118;-74
2021/12/05 08:29:30;;;;;;;1999.90;999.90;;;;;;;-1.38;61.97;99844.50;4942795;28;97883;-74
2021/12/05 08:32:12;;;;;;;1999.90;999.90;;;;;;;-1.36;61.54;99845.47;4941589;28;98371;-74
2021/12/05 08:34:50;;;;;;;1999.90;999.90;;;;;;;-1.36;62.03;99851.56;4937914;28;97226;-74
2021/12/05 08:37:49;;;;;;;1999.90;999.90;;;;;;;-1.34;61.76;99856.88;4919918;28;98562;-74
2021/12/05 09:08:23;;;;;;;1999.90;999.90;;;;;;;-1.33;61.42;99876.94;4936773;28;97212;-75
2021/12/05 09:28:42;;;;;;;1999.90;999.90;;;;;;;-1.16;61.77;99926.59;4910334;28;97262;-76
2021/12/05 09:38:31;;;;;;;1999.90;999.90;;;;;;;-1.10;61.70;99936.47;4938390;28;97047;-75
2021/12/05 09:40:11;;;;;;;1999.90;999.90;;;;;;;-1.05;61.24;99943.72;4945796;28;96980;-75
2021/12/05 09:51:23;;;;;;;1999.90;999.90;;;;;;;-0.90;61.37;99960.22;4946460;28;96947;-76
2021/12/05 10:02:41;;;;;;;1999.90;999.90;;;;;;;-0.68;60.70;99957.03;4906437;28;99604;-75
2021/12/05 10:10:57;;;;;;;1999.90;999.90;;;;;;;-0.57;60.69;99966.31;4913446;28;98570;-78
2021/12/05 10:13:31;;;;;;;1999.90;999.90;;;;;;;-0.52;60.49;99964.84;4938800;28;97616;-77
2021/12/05 10:16:12;;;;;;;1999.90;999.90;;;;;;;-0.48;60.84;99972.00;4940829;28;97669;-75
2021/12/05 10:38:27;;;;;;;1999.90;999.90;;;;;;;-0.16;60.03;99987.66;4943995;28;98315;-76
2021/12/05 10:41:02;;;;;;;1999.90;999.90;;;;;;;-0.10;60.08;99993.16;4946765;28;99082;-78
2021/12/05 10:43:32;;;;;;;1999.90;999.90;;;;;;;-0.06;60.43;99986.38;4937301;28;98486;-75
2021/12/05 10:46:07;;;;;;;1999.90;999.90;;;;;;;-0.04;59.73;99984.75;4918380;28;98285;-74
2021/12/05 10:48:38;;;;;;;1999.90;999.90;;;;;;;-0.01;59.56;99983.19;4940202;28;97535;-76
2021/12/05 10:51:08;;;;;;;1999.90;999.90;;;;;;;0.00;59.67;99995.44;4938051;28;99618;-75
2021/12/05 10:53:40;;;;;;;1999.90;999.90;;;;;;;0.01;59.46;99985.91;4921027;28;99172;-74
2021/12/05 10:56:18;;;;;;;1999.90;999.90;;;;;;;0.05;60.16;99988.72;4942235;28;96846;-75
2021/12/05 10:58:53;;;;;;;1999.90;999.90;;;;;;;0.08;59.89;99988.00;4943693;28;96956;-76
2021/12/05 11:01:28;;;;;;;1999.90;999.90;;;;;;;0.08;59.93;99991.47;4943309;28;99458;-75
2021/12/05 11:03:59;;;;;;;1999.90;999.90;;;;;;;0.08;59.65;99988.88;4943996;28;100154;-73
2021/12/05 11:06:31;;;;;;;1999.90;999.90;;;;;;;0.11;59.50;99998.59;4945693;28;97298;-73
2021/12/05 11:09:08;;;;;;;1999.90;999.90;;;;;;;0.11;59.83;99994.28;4941942;28;97399;-75
2021/12/05 11:11:37;;;;;;;1999.90;999.90;;;;;;;0.13;59.66;99996.94;4940843;28;97742;-75
2021/12/05 11:14:11;;;;;;;1999.90;999.90;;;;;;;0.13;59.79;99982.16;4941868;28;98726;-74
2021/12/05 11:16:43;;;;;;;1999.90;999.90;;;;;;;0.15;59.96;99987.47;4943919;28;96996;-73
2021/12/05 11:19:16;;;;;;;1999.90;999.90;;;;;;;0.18;59.96;99985.00;4943841;28;97447;-72
2021/12/05 11:21:50;;;;;;;1999.90;999.90;;;;;;;0.20;59.89;99984.25;4943408;28;96983;-74
2021/12/05 11:24:23;;;;;;;1999.90;999.90;;;;;;;0.26;59.61;99983.69;4946076;28;101453;-74
2021/12/05 11:27:19;;;;;;;1999.90;999.90;;;;;;;0.28;59.63;99994.22;4945380;28;97592;-76
2021/12/05 11:29:54;;;;;;;1999.90;999.90;;;;;;;0.30;59.39;99996.13;4932502;28;97271;-74
2021/12/05 11:32:28;;;;;;;1999.90;999.90;;;;;;;0.32;59.32;99990.97;4942859;28;98813;-74
2021/12/05 11:34:56;;;;;;;1999.90;999.90;;;;;;;0.32;59.37;99989.22;4943949;28;97640;-73
2021/12/05 11:37:24;;;;;;;1999.90;999.90;;;;;;;0.33;59.50;99998.88;4946241;28;97165;-74
2021/12/05 11:40:02;;;;;;;1999.90;999.90;;;;;;;0.32;59.59;99981.34;4946220;28;96848;-75
2021/12/05 11:42:30;;;;;;;1999.90;999.90;;;;;;;0.34;59.71;99984.09;4945493;28;98459;-74
2021/12/05 11:45:05;;;;;;;1999.90;999.90;;;;;;;0.34;59.34;99992.81;4947280;28;99189;-74
2021/12/05 11:47:37;;;;;;;1999.90;999.90;;;;;;;0.32;59.35;99990.97;4954220;28;96969;-74
2021/12/05 11:50:07;;;;;;;1999.90;999.90;;;;;;;0.31;59.46;99989.13;4957123;28;98009;-75
2021/12/05 11:52:38;;;;;;;1999.90;999.90;;;;;;;0.30;59.21;99993.50;4946978;28;99911;-73
2021/12/05 11:55:07;;;;;;;1999.90;999.90;;;;;;;0.31;59.55;99986.53;4947965;28;97715;-76
2021/12/05 11:57:37;;;;;;;1999.90;999.90;;;;;;;0.32;59.19;99993.56;4954638;28;97892;-73
2021/12/05 12:00:14;;;;;;;1999.90;999.90;;;;;;;0.29;59.32;99994.31;4930651;28;98189;-73
2021/12/05 12:02:42;;;;;;;1999.90;999.90;;;;;;;0.30;59.64;99989.97;4942827;28;97975;-72
2021/12/05 12:05:14;;;;;;;1999.90;999.90;;;;;;;0.31;59.68;99983.91;4934089;28;98571;-73
2021/12/05 12:07:45;;;;;;;1999.90;999.90;;;;;;;0.32;59.54;99983.97;4936582;28;98072;-74
2021/12/05 12:10:15;;;;;;;1999.90;999.90;;;;;;;0.35;59.40;99992.00;4938643;28;96921;-73
2021/12/05 12:12:47;;;;;;;1999.90;999.90;;;;;;;0.36;59.36;99985.06;4933985;28;97577;-71
2021/12/05 12:15:17;;;;;;;1999.90;999.90;;;;;;;0.43;59.43;99987.13;4936464;28;97739;-75
2021/12/05 12:17:47;;;;;;;1999.90;999.90;;;;;;;0.45;59.68;99982.88;4940286;28;98125;-73
2021/12/05 12:20:21;;;;;;;1999.90;999.90;;;;;;;0.42;59.77;99975.78;4942107;28;97790;-72
2021/12/05 12:22:50;;;;;;;1999.90;999.90;;;;;;;0.43;59.47;99976.69;4945025;28;99969;-73
2021/12/05 12:25:23;;;;;;;1999.90;999.90;;;;;;;0.45;59.73;99980.28;4944646;28;97931;-74
2021/12/05 12:27:51;;;;;;;1999.90;999.90;;;;;;;0.49;59.39;99982.19;4940494;28;97850;-76
2021/12/05 12:30:25;;;;;;;1999.90;999.90;;;;;;;0.53;59.44;99989.38;4941428;28;97566;-73
2021/12/05 12:32:58;;;;;;;1999.90;999.90;;;;;;;0.58;59.39;99993.09;4939706;28;97998;-73
2021/12/05 12:35:29;;;;;;;1999.90;999.90;;;;;;;0.62;59.35;99989.81;4942622;28;97596;-74
2021/12/05 12:38:01;;;;;;;1999.90;999.90;;;;;;;0.65;59.29;99995.22;4943040;28;96829;-76
2021/12/05 12:40:38;;;;;;;1999.90;999.90;;;;;;;0.67;59.26;99996.16;4941740;28;98791;-74
2021/12/05 12:43:42;;;;;;;1999.90;999.90;;;;;;;0.61;58.75;100001.13;4939076;28;97877;-74
2021/12/05 12:46:29;;;;;;;1999.90;999.90;;;;;;;0.61;59.13;99998.50;4930621;28;98940;-73
2021/12/05 12:49:00;;;;;;;1999.90;999.90;;;;;;;0.65;59.45;99989.97;4931678;28;97497;-74
2021/12/05 12:51:35;;;;;;;1999.90;999.90;;;;;;;0.63;59.10;99984.63;4934417;28;98432;-74
2021/12/05 12:54:06;;;;;;;1999.90;999.90;;;;;;;0.64;58.66;99988.16;4933117;28;99229;-74
2021/12/05 12:56:34;;;;;;;1999.90;999.90;;;;;;;0.63;58.95;99994.22;4934083;28;97925;-72
2021/12/05 12:59:06;;;;;;;1999.90;999.90;;;;;;;0.66;59.14;99991.75;4939664;28;98158;-73
2021/12/05 13:01:51;;;;;;;1999.90;999.90;;;;;;;0.70;59.24;99999.84;4931506;28;97028;-72
2021/12/05 13:10:05;;;;;;;1999.90;999.90;;;;;;;0.76;59.09;100000.09;4934253;28;97929;-73
2021/12/05 13:12:52;;;;;;;1999.90;999.90;;;;;;;0.77;58.35;100006.25;4923455;28;97746;-73
2021/12/05 13:15:26;;;;;;;1999.90;999.90;;;;;;;0.80;58.71;100001.16;4939552;28;98215;-75
2021/12/05 13:17:57;;;;;;;1999.90;999.90;;;;;;;0.83;58.76;100014.41;4936634;28;98853;-76
2021/12/05 13:20:27;;;;;;;1999.90;999.90;;;;;;;0.85;58.53;100015.38;4938073;28;98294;-75
2021/12/05 13:23:05;;;;;;;1999.90;999.90;;;;;;;0.86;58.07;100017.16;4940290;28;97654;-76
2021/12/05 13:25:36;;;;;;;1999.90;999.90;;;;;;;0.87;58.43;100029.41;4937925;28;100325;-77
2021/12/05 13:28:38;;;;;;;1999.90;999.90;;;;;;;0.79;57.54;100036.94;4937766;28;98610;-75
2021/12/05 13:31:53;;;;;;;1999.90;999.90;;;;;;;0.82;58.52;100042.31;4882249;28;97548;-75
2021/12/05 13:34:26;;;;;;;1999.90;999.90;;;;;;;0.84;58.21;100039.75;4882835;28;98260;-77
2021/12/05 13:37:20;;;;;;;1999.90;999.90;;;;;;;0.84;58.48;100034.50;4929342;28;98419;-79
2021/12/05 13:39:51;;;;;;;1999.90;999.90;;;;;;;0.84;58.37;100042.38;4945944;28;98094;-77
2021/12/05 13:42:22;;;;;;;1999.90;999.90;;;;;;;0.88;58.44;100049.56;4945435;28;97847;-76
2021/12/05 13:45:10;;;;;;;1999.90;999.90;;;;;;;0.90;58.91;100058.38;4940345;28;97023;-76
2021/12/05 13:47:42;;;;;;;1999.90;999.90;;;;;;;0.92;58.18;100055.00;4943976;28;98662;-77
2021/12/05 13:50:33;;;;;;;1999.90;999.90;;;;;;;0.95;58.64;100067.34;4942700;28;99285;-76
2021/12/05 13:53:44;;;;;;;1999.90;999.90;;;;;;;0.98;58.09;100064.88;4943414;28;100260;-78
2021/12/05 13:56:23;;;;;;;1999.90;999.90;;;;;;;1.01;58.71;100067.66;4928201;28;97743;-78
2021/12/05 13:58:53;;;;;;;1999.90;999.90;;;;;;;1.03;58.21;100074.75;4948847;28;100700;-79
2021/12/05 14:01:24;;;;;;;1999.90;999.90;;;;;;;1.03;58.57;100073.88;4940720;28;97834;-79
2021/12/05 14:04:26;;;;;;;1999.90;999.90;;;;;;;1.01;58.84;100078.13;4942809;28;97238;-74
2021/12/05 14:06:58;;;;;;;1999.90;999.90;;;;;;;1.04;58.59;100084.41;4931853;28;98079;-73
2021/12/05 14:09:32;;;;;;;1999.90;999.90;;;;;;;1.05;58.49;100094.06;4936261;28;98029;-74
2021/12/05 14:12:05;;;;;;;1999.90;999.90;;;;;;;1.04;58.52;100097.50;4939273;28;97606;-71
2021/12/05 14:14:35;;;;;;;1999.90;999.90;;;;;;;1.05;58.72;100104.53;4938483;28;97156;-74
2021/12/05 14:17:06;;;;;;;1999.90;999.90;;;;;;;1.05;58.12;100103.66;4954396;28;97104;-75
2021/12/05 14:19:36;;;;;;;1999.90;999.90;;;;;;;1.04;58.99;100107.09;4940415;28;98673;-73
2021/12/05 14:22:07;;;;;;;1999.90;999.90;;;;;;;1.03;58.14;100115.78;4940116;28;98840;-73
2021/12/05 14:24:38;;;;;;;1999.90;999.90;;;;;;;1.02;58.74;100113.97;4941541;28;97523;-77
2021/12/05 14:27:08;;;;;;;1999.90;999.90;;;;;;;1.04;58.11;100128.94;4942812;28;97278;-77
2021/12/05 14:29:40;;;;;;;1999.90;999.90;;;;;;;1.03;58.53;100132.38;4939832;28;100728;-77
2021/12/05 14:32:11;;;;;;;1999.90;999.90;;;;;;;1.03;58.55;100136.75;4936064;28;99339;-76
2021/12/05 14:34:39;;;;;;;1999.90;999.90;;;;;;;1.02;58.87;100142.78;4940514;28;97624;-77
2021/12/05 14:37:13;;;;;;;1999.90;999.90;;;;;;;1.01;58.67;100152.34;4939040;28;98187;-77
2021/12/05 14:39:42;;;;;;;1999.90;999.90;;;;;;;1.01;58.10;100159.34;4916570;28;100397;-78
2021/12/05 14:42:15;;;;;;;1999.90;999.90;;;;;;;1.00;58.73;100160.13;4934056;28;100823;-77
2021/12/05 14:44:46;;;;;;;1999.90;999.90;;;;;;;0.98;59.10;100164.41;4934497;28;101594;-77
2021/12/05 14:47:16;;;;;;;1999.90;999.90;;;;;;;0.95;58.70;100169.50;4917270;28;98094;-77
2021/12/05 14:49:47;;;;;;;1999.90;999.90;;;;;;;0.94;58.54;100178.19;4939970;28;101684;-77
2021/12/05 14:52:20;;;;;;;1999.90;999.90;;;;;;;0.90;58.95;100179.78;4934069;28;99910;-79
2021/12/05 14:54:48;;;;;;;1999.90;999.90;;;;;;;0.89;59.00;100190.13;4945614;28;98202;-78
2021/12/05 14:57:18;;;;;;;1999.90;999.90;;;;;;;0.84;59.02;100181.16;4944412;28;97340;-78
2021/12/05 14:59:48;;;;;;;1999.90;999.90;;;;;;;0.83;59.23;100182.88;4933729;28;97945;-77
2021/12/05 15:02:20;;;;;;;1999.90;999.90;;;;;;;0.76;59.18;100188.63;4918950;28;99190;-77
2021/12/05 15:04:54;;;;;;;1999.90;999.90;;;;;;;0.73;59.39;100193.72;4938664;28;97587;-76
2021/12/05 15:07:27;;;;;;;1999.90;999.90;;;;;;;0.70;59.30;100192.66;4938300;28;97613;-76
2021/12/05 15:09:56;;;;;;;1999.90;999.90;;;;;;;0.64;59.06;100197.59;4940140;28;98075;-77
2021/12/05 15:12:28;;;;;;;1999.90;999.90;;;;;;;0.59;59.42;100209.53;4940677;28;98496;-77
2021/12/05 15:14:59;;;;;;;1999.90;999.90;;;;;;;0.58;59.07;100218.19;4940986;28;97134;-77
2021/12/05 15:17:28;;;;;;;1999.90;999.90;;;;;;;0.52;59.41;100215.28;4944250;28;98396;-77
2021/12/05 15:19:59;;;;;;;1999.90;999.90;;;;;;;0.49;59.33;100213.41;4940001;28;99565;-77
2021/12/05 15:22:46;;;;;;;1999.90;999.90;;;;;;;0.43;59.78;100214.81;4944815;28;98712;-75
2021/12/05 15:25:15;;;;;;;1999.90;999.90;;;;;;;0.42;59.40;100223.47;4945355;28;97204;-75
2021/12/05 15:27:44;;;;;;;1999.90;999.90;;;;;;;0.43;59.54;100226.16;4944287;28;98286;-76
2021/12/05 15:30:15;;;;;;;1999.90;999.90;;;;;;;0.37;59.94;100232.78;4944117;28;99798;-76
2021/12/05 15:32:44;;;;;;;1999.90;999.90;;;;;;;0.34;59.67;100232.66;4942941;28;100531;-75
2021/12/05 15:35:15;;;;;;;1999.90;999.90;;;;;;;0.31;59.65;100228.13;4942488;28;98489;-78
2021/12/05 15:37:49;;;;;;;1999.90;999.90;;;;;;;0.25;59.79;100235.66;4946088;28;97942;-77
2021/12/05 15:40:17;;;;;;;1999.90;999.90;;;;;;;0.26;59.52;100237.47;4945491;28;98740;-76